createdAt,value
2018-11-05T00:02:29.476Z,38.60
2018-11-05T00:06:33.541Z,37.47
2018-11-05T00:10:37.538Z,34.80
2018-11-05T00:14:41.419Z,35.03
2018-11-05T00:18:45.535Z,34.50
2018-11-05T00:22:49.443Z,37.17
2018-11-05T00:26:54.280Z,38.50
2018-11-05T00:30:58.460Z,36.73
2018-11-05T00:35:02.444Z,38.73
2018-11-05T00:39:09.140Z,38.67
2018-11-05T00:43:13.059Z,38.55
2018-11-05T00:47:17.316Z,33.67
2018-11-05T00:51:21.237Z,32.97
2018-11-05T00:55:25.172Z,37.03
2018-11-05T00:59:29.157Z,34.53
2018-11-05T01:03:33.052Z,33.70
2018-11-05T01:07:37.006Z,36.42
2018-11-05T01:11:40.985Z,37.57
2018-11-05T01:15:46.069Z,35.43
2018-11-05T01:19:51.395Z,32.23
2018-11-05T01:23:56.298Z,33.20
2018-11-05T01:28:01.229Z,35.77
2018-11-05T01:32:06.115Z,34.70
2018-11-05T01:36:10.447Z,31.73
2018-11-05T01:40:15.750Z,35.80
2018-11-05T01:44:20.095Z,34.13
2018-11-05T01:48:24.831Z,35.88
2018-11-05T01:52:30.273Z,33.17
2018-11-05T01:56:34.698Z,29.57
2018-11-05T02:00:39.102Z,33.60
2018-11-05T02:04:43.756Z,33.37
2018-11-05T02:08:48.567Z,33.80
2018-11-05T02:12:53.409Z,35.23
2018-11-05T02:16:57.990Z,34.40
2018-11-05T02:21:02.572Z,34.15
2018-11-05T02:25:08.692Z,34.27
2018-11-05T02:29:13.440Z,32.48
2018-11-05T02:33:17.894Z,32.53
2018-11-05T02:37:22.459Z,30.60
2018-11-05T02:41:27.027Z,30.13
2018-11-05T02:45:31.571Z,32.87
2018-11-05T02:49:35.789Z,31.93
2018-11-05T02:53:40.088Z,29.13
2018-11-05T02:57:44.510Z,29.98
2018-11-05T03:01:48.840Z,28.87
2018-11-05T03:05:53.116Z,29.67
2018-11-05T03:09:57.428Z,29.57
2018-11-05T03:14:01.863Z,27.43
2018-11-05T03:18:06.824Z,26.35
2018-11-05T03:22:11.127Z,27.73
2018-11-05T03:26:15.420Z,27.22
2018-11-05T03:30:19.850Z,26.97
2018-11-05T03:34:24.110Z,29.67
2018-11-05T03:38:28.452Z,30.07
2018-11-05T03:42:32.977Z,27.23
2018-11-05T03:46:38.635Z,27.87
2018-11-05T03:50:42.981Z,27.90
2018-11-05T03:54:47.964Z,29.92
2018-11-05T03:58:52.059Z,30.13
2018-11-05T04:02:56.833Z,30.37
2018-11-05T04:07:01.049Z,30.03
2018-11-05T04:11:05.765Z,32.80
2018-11-05T04:15:10.333Z,32.58
2018-11-05T04:19:15.249Z,25.90
2018-11-05T04:23:20.013Z,27.37
2018-11-05T04:27:24.172Z,26.23
2018-11-05T04:31:29.364Z,32.00
2018-11-05T04:35:34.037Z,31.53
2018-11-05T04:39:38.169Z,32.70
2018-11-05T04:43:42.770Z,30.50
2018-11-05T04:47:47.747Z,28.07
2018-11-05T04:51:52.277Z,30.60
2018-11-05T04:55:56.487Z,28.83
2018-11-05T05:00:05.393Z,31.97
2018-11-05T05:04:09.728Z,31.83
2018-11-05T05:08:15.005Z,27.55
2018-11-05T05:12:19.386Z,33.20
2018-11-05T05:16:23.901Z,30.53
2018-11-05T05:20:30.272Z,28.35
2018-11-05T05:24:35.046Z,32.10
2018-11-05T05:28:39.127Z,27.15
2018-11-05T05:32:44.941Z,27.83
2018-11-05T05:36:49.325Z,30.73
2018-11-05T05:40:53.515Z,26.87
2018-11-05T05:44:57.747Z,27.47
2018-11-05T05:49:02.447Z,29.33
2018-11-05T05:53:06.698Z,27.30
2018-11-05T05:57:11.796Z,32.40
2018-11-05T06:01:16.123Z,28.20
2018-11-05T06:05:20.617Z,31.00
2018-11-05T06:09:25.066Z,35.47
2018-11-05T06:13:29.436Z,30.70
2018-11-05T06:17:33.924Z,27.93
2018-11-05T06:21:38.219Z,27.05
2018-11-05T06:25:42.701Z,32.10
2018-11-05T06:29:46.908Z,33.63
2018-11-05T06:33:51.302Z,35.80
2018-11-05T06:37:55.564Z,34.20
2018-11-05T06:41:59.755Z,33.63
2018-11-05T06:46:04.011Z,34.57
2018-11-05T06:50:10.336Z,38.60
2018-11-05T06:54:15.076Z,37.63
2018-11-05T06:58:19.861Z,38.23
2018-11-05T07:02:24.275Z,29.87
2018-11-05T07:06:28.760Z,33.40
2018-11-05T07:10:33.786Z,28.60
2018-11-05T07:14:38.174Z,34.77
2018-11-05T07:18:42.515Z,32.30
2018-11-05T07:22:48.082Z,34.43
2018-11-05T07:26:53.510Z,29.42
2018-11-05T07:30:57.962Z,30.77
2018-11-05T07:35:02.455Z,33.00
2018-11-05T07:39:10.229Z,32.90
2018-11-05T07:43:14.945Z,29.60
2018-11-05T07:47:19.392Z,31.50
2018-11-05T07:51:23.845Z,27.17
2018-11-05T07:55:28.408Z,28.83
2018-11-05T07:59:32.833Z,25.93
2018-11-05T08:03:37.919Z,28.20
2018-11-05T08:07:43.301Z,25.92
2018-11-05T08:11:47.315Z,26.10
2018-11-05T08:15:51.812Z,29.80
2018-11-05T08:19:55.984Z,29.03
2018-11-05T08:24:00.078Z,30.17
2018-11-05T08:28:05.594Z,29.75
2018-11-05T08:32:09.592Z,29.25
2018-11-05T08:36:13.907Z,23.90
2018-11-05T08:40:23.967Z,25.10
2018-11-05T08:44:28.533Z,27.30
2018-11-05T08:48:33.273Z,22.90
2018-11-05T08:52:37.730Z,23.33
2018-11-05T08:56:41.684Z,23.43
2018-11-05T09:00:51.137Z,23.43
2018-11-05T09:04:55.480Z,23.87
2018-11-05T09:08:59.400Z,24.23
2018-11-05T09:13:03.567Z,20.90
2018-11-05T09:17:07.865Z,20.67
2018-11-05T09:21:12.312Z,22.80
2018-11-05T09:25:16.955Z,21.37
2018-11-05T09:29:21.170Z,22.22
2018-11-05T09:33:25.110Z,20.30
2018-11-05T09:37:29.179Z,20.27
2018-11-05T09:41:33.247Z,19.50
2018-11-05T09:45:37.547Z,20.17
2018-11-05T09:49:41.709Z,19.00
2018-11-05T09:53:45.733Z,20.03
2018-11-05T09:57:49.754Z,21.77
2018-11-05T10:01:54.075Z,21.10
2018-11-05T10:05:58.041Z,22.50
2018-11-05T10:10:03.387Z,22.53
2018-11-05T10:14:07.882Z,22.80
2018-11-05T10:18:11.930Z,23.23
2018-11-05T10:22:16.817Z,23.22
2018-11-05T10:26:20.843Z,24.63
2018-11-05T10:30:26.027Z,25.53
2018-11-05T10:34:30.039Z,26.40
2018-11-05T10:38:34.288Z,27.53
2018-11-05T10:42:39.343Z,27.33
2018-11-05T10:46:43.505Z,32.63
2018-11-05T10:50:47.782Z,36.17
2018-11-05T10:54:51.807Z,38.13
2018-11-05T10:58:56.137Z,38.10
2018-11-05T11:03:05.823Z,39.13
2018-11-05T11:07:09.990Z,39.97
2018-11-05T11:11:14.617Z,42.00
2018-11-05T11:15:18.897Z,39.85
2018-11-05T11:19:22.917Z,44.53
2018-11-05T11:23:27.207Z,40.60
2018-11-05T11:27:31.979Z,43.93
2018-11-05T11:31:35.911Z,41.17
2018-11-05T11:35:40.291Z,38.30
2018-11-05T11:39:44.431Z,40.63
2018-11-05T11:43:50.184Z,38.30
2018-11-05T11:47:54.191Z,40.08
2018-11-05T11:51:59.228Z,38.95
2018-11-05T11:56:03.251Z,42.58
2018-11-05T12:00:17.062Z,38.98
2018-11-05T12:04:21.063Z,42.08
2018-11-05T12:08:25.106Z,44.40
2018-11-05T12:12:29.182Z,41.70
2018-11-05T12:16:33.229Z,41.27
2018-11-05T12:20:37.593Z,43.07
2018-11-05T12:24:42.495Z,42.43
2018-11-05T12:28:48.087Z,42.13
2018-11-05T12:32:53.220Z,41.05
2018-11-05T12:36:57.392Z,39.17
2018-11-05T12:41:02.181Z,38.63
2018-11-05T12:45:07.391Z,41.13
2018-11-05T12:49:11.413Z,41.03
2018-11-05T12:53:15.718Z,42.90
2018-11-05T12:57:20.287Z,39.75
2018-11-05T13:01:24.420Z,38.43
2018-11-05T13:05:29.566Z,39.87
2018-11-05T13:09:33.785Z,38.77
2018-11-05T13:13:37.997Z,39.08
2018-11-05T13:17:42.330Z,38.37
2018-11-05T13:21:46.651Z,39.30
2018-11-05T13:25:50.860Z,41.67
2018-11-05T13:29:55.369Z,40.73
2018-11-05T13:33:59.268Z,38.17
2018-11-05T13:38:03.872Z,36.50
2018-11-05T13:42:07.342Z,41.50
2018-11-05T13:46:11.406Z,39.10
2018-11-05T13:50:15.870Z,36.63
2018-11-05T13:54:19.590Z,37.33
2018-11-05T13:58:24.105Z,37.50
2018-11-05T14:02:28.020Z,35.90
2018-11-05T14:06:33.198Z,37.20
2018-11-05T14:10:37.099Z,38.73
2018-11-05T14:14:41.531Z,36.00
2018-11-05T14:18:45.413Z,39.00
2018-11-05T14:22:49.316Z,37.70
2018-11-05T14:26:53.250Z,39.03
2018-11-05T14:30:57.135Z,35.97
2018-11-05T14:35:01.729Z,35.17
2018-11-05T14:39:09.121Z,37.53
2018-11-05T14:43:13.145Z,37.50
2018-11-05T14:47:16.872Z,36.08
2018-11-05T14:51:21.143Z,35.13
2018-11-05T14:55:24.915Z,37.80
2018-11-05T14:59:28.896Z,41.15
2018-11-05T15:03:32.824Z,37.30
2018-11-05T15:07:37.382Z,38.10
2018-11-05T15:11:41.098Z,37.17
2018-11-05T15:15:45.261Z,38.43
2018-11-05T15:19:49.421Z,35.73
2018-11-05T15:23:53.045Z,35.07
2018-11-05T15:27:57.337Z,33.23
2018-11-05T15:32:01.420Z,33.27
2018-11-05T15:36:05.806Z,32.17
2018-11-05T15:40:11.412Z,34.73
2018-11-05T15:44:15.296Z,33.73
2018-11-05T15:48:19.196Z,34.80
2018-11-05T15:52:23.952Z,35.63
2018-11-05T15:56:27.703Z,33.73
2018-11-05T16:00:31.635Z,36.37
2018-11-05T16:04:35.671Z,34.50
2018-11-05T16:08:39.476Z,34.70
2018-11-05T16:12:43.443Z,36.23
2018-11-05T16:16:47.317Z,32.37
2018-11-05T16:20:51.220Z,34.63
2018-11-05T16:24:55.137Z,35.80
2018-11-05T16:28:59.071Z,35.03
2018-11-05T16:33:03.012Z,35.77
2018-11-05T16:37:06.961Z,28.90
2018-11-05T16:41:10.824Z,32.37
2018-11-05T16:45:15.621Z,33.90
2018-11-05T16:49:19.859Z,32.33
2018-11-05T16:53:24.203Z,32.47
2018-11-05T16:57:28.186Z,33.77
2018-11-05T17:01:32.405Z,32.00
2018-11-05T17:05:36.309Z,33.27
2018-11-05T17:09:41.180Z,34.53
2018-11-05T17:13:45.526Z,34.80
2018-11-05T17:17:49.354Z,36.03
2018-11-05T17:21:53.256Z,35.67
2018-11-05T17:25:57.364Z,36.40
2018-11-05T17:30:01.476Z,35.13
2018-11-05T17:34:06.237Z,39.03
2018-11-05T17:38:10.109Z,38.97
2018-11-05T17:42:13.984Z,35.30
2018-11-05T17:46:17.889Z,35.10
2018-11-05T17:50:22.413Z,39.88
2018-11-05T17:54:26.302Z,38.50
2018-11-05T17:58:30.162Z,35.00
2018-11-05T18:02:34.527Z,35.07
2018-11-05T18:06:38.456Z,33.40
2018-11-05T18:10:42.389Z,34.70
2018-11-05T18:14:46.343Z,37.43
2018-11-05T18:18:50.331Z,35.53
2018-11-05T18:22:54.480Z,34.35
2018-11-05T18:26:58.433Z,30.70
2018-11-05T18:31:02.797Z,33.42
2018-11-05T18:35:08.626Z,36.50
2018-11-05T18:39:12.685Z,34.85
2018-11-05T18:43:16.568Z,34.38
2018-11-05T18:47:21.572Z,33.73
2018-11-05T18:51:25.474Z,35.30
2018-11-05T18:55:30.740Z,32.17
2018-11-05T18:59:34.895Z,32.10
2018-11-05T19:03:38.891Z,34.67
2018-11-05T19:07:42.885Z,35.83
2018-11-05T19:11:47.090Z,32.93
2018-11-05T19:15:51.011Z,38.77
2018-11-05T19:19:54.812Z,33.58
2018-11-05T19:23:59.063Z,32.97
2018-11-05T19:28:02.915Z,33.40
2018-11-05T19:32:08.310Z,35.47
2018-11-05T19:36:12.327Z,32.35
2018-11-05T19:40:17.885Z,35.35
2018-11-05T19:44:21.768Z,36.57
2018-11-05T19:48:26.418Z,36.17
2018-11-05T19:52:30.349Z,34.10
2018-11-05T19:56:34.621Z,33.67
2018-11-05T20:00:38.556Z,34.43
2018-11-05T20:04:42.978Z,34.13
2018-11-05T20:08:47.250Z,33.43
2018-11-05T20:12:51.371Z,29.60
2018-11-05T20:16:57.167Z,34.78
2018-11-05T20:21:00.912Z,36.80
2018-11-05T20:25:07.536Z,33.90
2018-11-05T20:29:11.524Z,32.10
2018-11-05T20:33:15.779Z,30.88
2018-11-05T20:37:19.324Z,30.68
2018-11-05T20:41:23.512Z,30.63
2018-11-05T20:45:27.430Z,28.70
2018-11-05T20:49:32.496Z,28.80
2018-11-05T20:53:36.575Z,26.67
2018-11-05T20:57:41.048Z,26.93
2018-11-05T21:01:44.981Z,29.43
2018-11-05T21:05:49.340Z,29.12
2018-11-05T21:09:53.213Z,29.70
2018-11-05T21:13:58.551Z,28.93
2018-11-05T21:18:02.611Z,34.20
2018-11-05T21:22:09.273Z,30.60
2018-11-05T21:26:13.104Z,33.67
2018-11-05T21:30:18.403Z,31.68
2018-11-05T21:34:22.304Z,33.85
2018-11-05T21:38:26.217Z,37.57
2018-11-05T21:42:30.165Z,39.27
2018-11-05T21:46:34.212Z,38.87
2018-11-05T21:50:38.110Z,35.05
2018-11-05T21:54:42.001Z,35.60
2018-11-05T21:58:45.942Z,27.67
2018-11-05T22:02:55.599Z,25.67
2018-11-05T22:06:59.495Z,26.93
2018-11-05T22:11:03.410Z,25.13
2018-11-05T22:15:07.382Z,36.43
2018-11-05T22:19:12.344Z,27.17
2018-11-05T22:23:17.734Z,36.20
2018-11-05T22:27:22.472Z,36.42
2018-11-05T22:31:27.521Z,28.60
2018-11-05T22:35:32.414Z,29.40
2018-11-05T22:39:36.295Z,24.97
2018-11-05T22:43:40.276Z,29.65
2018-11-05T22:47:44.961Z,30.70
2018-11-05T22:51:49.901Z,33.87
2018-11-05T22:55:54.987Z,35.50
2018-11-05T22:59:59.001Z,29.90
2018-11-05T23:04:03.765Z,25.55
2018-11-05T23:08:07.655Z,25.10
2018-11-05T23:12:11.818Z,26.42
2018-11-05T23:16:16.098Z,21.23
2018-11-05T23:20:20.126Z,24.17
2018-11-05T23:24:24.241Z,33.40
2018-11-05T23:28:28.435Z,25.07
2018-11-05T23:32:32.372Z,21.40
2018-11-05T23:36:36.820Z,23.87
2018-11-05T23:40:40.738Z,23.13
2018-11-05T23:44:44.728Z,20.60
2018-11-05T23:48:48.656Z,22.80
2018-11-05T23:52:52.838Z,21.43
2018-11-05T23:56:56.724Z,21.73
